Time;durP1;ratioP1;P1;durP2;ratioP2;P2;SDS_P1;SDS_P2;PMS_P1;PMS_P2;Temp;Humidity;BMP_temperature;BMP_pressure;BME280_temperature;BME280_humidity;BME280_pressure;Samples;Min_cycle;Max_cycle;Signal;HPM_P1;HPM_P2
2022/01/28 00:04:53;;;;;;;24.87;19.48;;;;;;;1.53;83.06;99597.50;1686434;83;21051;-62
2022/01/28 00:07:21;;;;;;;28.00;18.70;;;;;;;1.62;82.90;99594.95;1694857;83;21035;-63
2022/01/28 00:09:47;;;;;;;24.95;18.75;;;;;;;1.67;82.50;99588.77;1683136;83;21051;-62
2022/01/28 00:12:14;;;;;;;24.95;18.10;;;;;;;1.68;82.31;99584.68;1687702;83;21014;-62
2022/01/28 00:15:03;;;;;;;27.58;20.82;;;;;;;1.65;82.13;99577.09;1666376;84;21030;-62
2022/01/28 00:38:53;;;;;;;23.52;16.42;;;;;;;1.71;82.18;99550.23;1589876;88;21532;-61
2022/01/28 00:41:19;;;;;;;23.15;16.95;;;;;;;1.74;82.13;99553.86;1669401;84;21005;-62
2022/01/28 00:43:46;;;;;;;24.55;18.85;;;;;;;1.70;82.28;99544.63;1652286;84;21653;-61
2022/01/28 00:46:12;;;;;;;25.05;16.55;;;;;;;1.66;82.27;99543.28;1642156;84;21040;-63
2022/01/28 00:48:38;;;;;;;22.00;16.48;;;;;;;1.66;82.21;99535.91;1645760;85;21067;-62
2022/01/28 00:51:05;;;;;;;23.90;17.95;;;;;;;1.73;81.97;99538.23;1586118;89;21103;-62
2022/01/28 00:53:32;;;;;;;20.07;16.13;;;;;;;1.78;81.84;99537.80;1617403;87;21118;-62
2022/01/28 00:55:59;;;;;;;19.92;15.85;;;;;;;1.80;81.80;99530.59;1633296;85;21052;-62
2022/01/28 00:58:26;;;;;;;25.47;16.40;;;;;;;1.76;81.66;99527.44;1688081;84;21435;-62
2022/01/28 01:00:52;;;;;;;25.12;19.50;;;;;;;1.74;81.67;99524.14;1686848;83;21003;-62
2022/01/28 01:03:19;;;;;;;21.60;16.85;;;;;;;1.72;81.65;99514.27;1665983;84;21083;-62
2022/01/28 01:05:45;;;;;;;24.57;17.75;;;;;;;1.76;81.47;99506.42;1670635;84;21500;-62
2022/01/28 01:08:13;;;;;;;26.47;16.57;;;;;;;1.83;80.96;99509.25;1675578;84;21080;-62
2022/01/28 01:10:40;;;;;;;21.57;17.50;;;;;;;1.85;80.78;99498.94;1672234;84;21117;-62
2022/01/28 01:13:06;;;;;;;22.50;16.90;;;;;;;1.86;80.73;99498.44;1688165;84;21182;-62
2022/01/28 01:15:37;;;;;;;23.00;16.30;;;;;;;1.80;80.93;99492.48;1636071;86;21021;-62
2022/01/28 01:18:13;;;;;;;23.33;17.10;;;;;;;1.75;81.19;99489.84;1681985;84;21511;-63
2022/01/28 01:23:23;;;;;;;21.80;17.00;;;;;;;1.73;81.34;99476.49;1666659;84;21266;-66
2022/01/28 01:25:49;;;;;;;21.23;16.53;;;;;;;1.74;81.38;99467.16;1669846;84;21012;-62
2022/01/28 01:28:14;;;;;;;24.33;16.70;;;;;;;1.70;81.43;99463.19;1671594;84;21454;-62
2022/01/28 01:30:43;;;;;;;23.37;18.07;;;;;;;1.64;81.50;99458.55;1670016;84;21485;-61
2022/01/28 01:33:10;;;;;;;23.53;18.00;;;;;;;1.62;81.54;99461.81;1635776;88;21061;-61
2022/01/28 01:35:39;;;;;;;22.63;17.27;;;;;;;1.63;81.40;99453.44;1621053;87;22169;-62
2022/01/28 01:38:08;;;;;;;22.03;15.77;;;;;;;1.68;81.22;99452.01;1622813;87;21213;-62
2022/01/28 01:40:51;;;;;;;26.07;18.77;;;;;;;1.72;81.14;99446.78;1667838;84;21027;-62
2022/01/28 01:43:31;;;;;;;20.13;16.23;;;;;;;1.71;81.16;99435.10;1663529;84;21570;-61
2022/01/28 01:46:03;;;;;;;25.37;18.00;;;;;;;1.64;81.32;99432.75;1665914;84;21468;-61
2022/01/28 01:53:51;;;;;;;23.17;17.27;;;;;;;1.66;80.79;99430.82;1671544;84;21601;-63
2022/01/28 01:56:19;;;;;;;19.10;15.63;;;;;;;1.67;80.58;99426.70;1648218;84;21149;-62
2022/01/28 01:58:48;;;;;;;23.77;16.73;;;;;;;1.67;80.61;99426.70;1670198;84;21123;-62
2022/01/28 02:01:14;;;;;;;22.00;17.10;;;;;;;1.64;80.79;99423.09;1669307;84;21019;-61
2022/01/28 02:03:41;;;;;;;23.10;16.97;;;;;;;1.61;80.76;99419.94;1670024;84;21471;-62
2022/01/28 02:06:07;;;;;;;24.05;15.72;;;;;;;1.62;80.75;99412.38;1673458;84;21058;-62
2022/01/28 02:08:36;;;;;;;21.53;16.10;;;;;;;1.68;80.52;99407.34;1669725;84;20999;-63
2022/01/28 02:11:03;;;;;;;21.43;16.93;;;;;;;1.70;80.31;99409.33;1677034;84;20976;-61
2022/01/28 02:13:35;;;;;;;22.17;17.03;;;;;;;1.68;80.36;99407.34;1658011;84;21050;-62
2022/01/28 02:16:02;;;;;;;24.63;17.90;;;;;;;1.62;80.40;99411.06;1661805;84;21031;-61
2022/01/28 02:18:29;;;;;;;24.93;16.27;;;;;;;1.54;80.79;99406.11;1670499;84;20995;-63
2022/01/28 02:21:03;;;;;;;25.25;18.62;;;;;;;1.60;80.66;99409.92;1671949;84;21014;-62
2022/01/28 02:23:23;;;;;;;19.60;14.67;;;;;;;1.66;80.59;99406.68;1676169;83;21005;-62
2022/01/28 02:25:51;;;;;;;26.10;17.82;;;;;;;1.69;80.61;99410.79;1692012;83;21097;-62
2022/01/28 02:28:21;;;;;;;22.03;17.20;;;;;;;1.65;80.67;99402.39;1691830;83;21014;-62
2022/01/28 02:30:46;;;;;;;25.07;17.47;;;;;;;1.60;80.97;99404.67;1699323;83;21570;-61
2022/01/28 02:33:17;;;;;;;23.73;17.23;;;;;;;1.59;81.22;99404.33;1686544;83;21526;-61
2022/01/28 02:35:43;;;;;;;22.10;17.37;;;;;;;1.64;81.29;99397.28;1687449;83;21530;-61
2022/01/28 02:38:11;;;;;;;20.80;16.27;;;;;;;1.62;81.78;99396.61;1677585;84;22141;-63
2022/01/28 02:40:44;;;;;;;25.67;17.07;;;;;;;1.57;82.14;99391.83;1693363;84;21078;-62
2022/01/28 02:45:50;;;;;;;23.20;16.93;;;;;;;1.36;82.90;99391.68;1681320;83;21102;-61
2022/01/28 02:48:20;;;;;;;20.87;17.30;;;;;;;1.33;83.10;99389.34;1658592;85;21119;-62
2022/01/28 02:51:01;;;;;;;21.73;15.73;;;;;;;1.38;83.20;99385.47;1643140;86;21119;-62
2022/01/28 02:53:21;;;;;;;22.50;16.17;;;;;;;1.43;83.10;99388.44;1637714;86;21167;-61
2022/01/28 02:55:42;;;;;;;23.07;18.33;;;;;;;1.45;83.08;99383.85;1639237;86;21069;-62
2022/01/28 02:58:19;;;;;;;22.80;17.23;;;;;;;1.36;83.10;99374.61;1661579;84;21650;-62
2022/01/28 03:00:47;;;;;;;21.97;16.47;;;;;;;1.30;83.09;99375.70;1658497;84;21667;-63
2022/01/28 03:03:18;;;;;;;25.17;18.13;;;;;;;1.35;83.09;99380.83;1651059;85;21027;-62
2022/01/28 03:05:46;;;;;;;22.93;17.33;;;;;;;1.40;82.82;99383.51;1642104;86;21061;-63
2022/01/28 03:08:13;;;;;;;22.70;17.07;;;;;;;1.41;82.77;99378.58;1661116;85;21040;-64
2022/01/28 03:15:39;;;;;;;20.85;14.50;;;;;;;1.38;82.64;99369.71;1677275;85;21099;-65
2022/01/28 03:18:19;;;;;;;19.73;15.07;;;;;;;1.44;82.53;99376.97;1672169;85;20988;-65
2022/01/28 03:20:56;;;;;;;;;;;;;;;1.48;82.20;99370.42;1679010;85;21095;-64
2022/01/28 03:23:12;;;;;;;22.55;16.17;;;;;;;1.45;82.09;99361.53;1680674;84;20145;-64
2022/01/28 03:25:43;;;;;;;21.77;15.90;;;;;;;1.31;82.56;99366.36;1660863;86;21029;-65
2022/01/28 03:28:10;;;;;;;23.53;15.87;;;;;;;1.27;82.92;99367.64;1662748;86;21503;-65
2022/01/28 03:30:37;;;;;;;18.63;15.20;;;;;;;1.32;82.86;99363.27;1668787;85;21010;-64
2022/01/28 03:33:03;;;;;;;20.43;14.87;;;;;;;1.38;82.83;99367.09;1669368;86;21086;-63
2022/01/28 03:35:33;;;;;;;21.00;15.28;;;;;;;1.44;82.79;99358.59;1651686;85;22162;-64
2022/01/28 03:38:01;;;;;;;18.77;14.30;;;;;;;1.44;82.77;99342.83;1669073;86;21095;-65
2022/01/28 03:40:33;;;;;;;20.90;15.13;;;;;;;1.40;82.57;99351.50;1669248;86;21027;-63
2022/01/28 03:42:59;;;;;;;17.67;14.00;;;;;;;1.33;82.69;99351.28;1652199;86;21043;-65
2022/01/28 03:45:26;;;;;;;19.47;14.53;;;;;;;1.37;82.45;99357.05;1639371;85;21027;-65
2022/01/28 03:47:52;;;;;;;16.93;13.07;;;;;;;1.42;82.23;99341.66;1650975;86;21228;-64
2022/01/28 03:50:19;;;;;;;17.62;14.50;;;;;;;1.42;82.12;99342.16;1684181;84;21587;-65
2022/01/28 03:52:45;;;;;;;19.57;13.40;;;;;;;1.43;82.06;99331.51;1687360;84;21027;-65
2022/01/28 03:55:12;;;;;;;16.77;13.13;;;;;;;1.46;81.99;99327.24;1686705;84;21031;-66
2022/01/28 03:57:38;;;;;;;15.00;11.95;;;;;;;1.51;81.79;99326.80;1711836;82;21443;-65
2022/01/28 04:00:06;;;;;;;15.88;13.10;;;;;;;1.51;81.68;99329.42;1663026;85;21499;-65
2022/01/28 04:02:37;;;;;;;17.13;13.50;;;;;;;1.48;81.61;99326.59;1662241;84;21018;-64
2022/01/28 04:13:05;;;;;;;15.63;12.50;;;;;;;1.53;81.75;99327.47;1665821;84;21527;-64
2022/01/28 04:18:16;;;;;;;14.47;12.53;;;;;;;1.47;81.75;99317.09;1657353;84;21065;-65
2022/01/28 04:20:42;;;;;;;16.40;12.37;;;;;;;1.47;81.75;99320.18;1677134;84;21086;-65
2022/01/28 04:23:08;;;;;;;16.93;11.88;;;;;;;1.51;81.63;99320.23;1666170;84;20995;-64
2022/01/28 04:25:34;;;;;;;16.20;14.00;;;;;;;1.52;81.53;99322.67;1665811;85;21527;-64
2022/01/28 04:28:02;;;;;;;14.60;11.80;;;;;;;1.57;81.40;99320.10;1671162;84;21014;-64
2022/01/28 04:30:28;;;;;;;12.78;11.43;;;;;;;1.58;81.39;99321.23;1656091;84;21157;-64
2022/01/28 04:32:56;;;;;;;13.98;11.97;;;;;;;1.54;81.44;99331.72;1657538;84;21015;-64
2022/01/28 04:35:22;;;;;;;14.63;12.07;;;;;;;1.49;81.53;99331.38;1656192;84;21006;-64
2022/01/28 04:38:09;;;;;;;16.65;11.10;;;;;;;1.52;81.59;99333.69;1657540;84;21030;-63
2022/01/28 04:40:27;;;;;;;13.97;10.93;;;;;;;1.59;81.35;99327.33;1660077;84;21107;-63
2022/01/28 04:43:06;;;;;;;15.33;11.93;;;;;;;1.62;81.40;99326.54;1660953;84;21082;-63
2022/01/28 04:45:44;;;;;;;15.60;12.85;;;;;;;1.61;81.45;99330.13;1659283;85;21149;-63
2022/01/28 04:48:57;;;;;;;;;;;;;;;1.60;81.54;99327.66;1682906;84;20983;-64
2022/01/28 05:11:53;;;;;;;11.83;9.87;;;;;;;1.80;80.90;99293.61;1614948;85;21661;-62
2022/01/28 05:27:06;;;;;;;12.63;10.20;;;;;;;1.85;80.75;99293.16;1714381;82;21542;-63
2022/01/28 05:29:30;;;;;;;11.00;9.47;;;;;;;1.87;80.55;99293.31;1706892;83;21049;-62
2022/01/28 05:31:56;;;;;;;19.45;13.60;;;;;;;1.86;80.66;99294.78;1719444;82;21066;-62
2022/01/28 05:34:25;;;;;;;15.88;11.45;;;;;;;1.81;80.97;99295.27;1720532;82;20966;-63
2022/01/28 05:36:51;;;;;;;15.63;10.90;;;;;;;1.82;81.18;99293.45;1705257;82;21155;-62
2022/01/28 05:39:18;;;;;;;12.93;11.48;;;;;;;1.86;81.13;99297.41;1693504;82;21271;-66
2022/01/28 05:41:45;;;;;;;13.97;11.60;;;;;;;1.90;80.89;99294.80;1710436;82;21540;-65
2022/01/28 05:44:11;;;;;;;17.82;13.78;;;;;;;1.95;80.56;99302.54;1698368;82;21233;-63
2022/01/28 05:46:38;;;;;;;14.87;12.37;;;;;;;1.99;80.54;99293.85;1714549;82;21073;-62
2022/01/28 05:49:04;;;;;;;;;;;;;;;2.02;80.59;99286.97;1732493;82;21604;-62
2022/01/28 05:51:30;;;;;;;16.57;13.40;;;;;;;2.02;80.57;99296.17;1716099;82;20457;-63
2022/01/28 05:53:59;;;;;;;17.27;11.57;;;;;;;1.93;80.64;99287.42;1712487;82;21025;-62
2022/01/28 05:56:27;;;;;;;16.20;12.50;;;;;;;1.89;80.76;99286.59;1716762;82;21384;-62
2022/01/28 05:58:55;;;;;;;13.93;12.13;;;;;;;1.92;80.78;99292.36;1715454;82;21142;-63
2022/01/28 06:01:21;;;;;;;15.60;13.28;;;;;;;2.03;80.58;99302.25;1709957;82;21015;-62
2022/01/28 06:03:47;;;;;;;17.85;12.63;;;;;;;2.09;80.30;99306.39;1737241;82;21027;-63
2022/01/28 06:06:21;;;;;;;14.20;12.45;;;;;;;2.11;80.47;99300.95;1707995;82;21022;-62
2022/01/28 06:08:52;;;;;;;17.43;13.47;;;;;;;2.10;80.26;99302.77;1713667;82;21031;-61
2022/01/28 06:11:19;;;;;;;14.97;13.00;;;;;;;2.00;80.33;99307.81;1716250;82;21826;-62
2022/01/28 06:13:46;;;;;;;18.10;12.83;;;;;;;1.93;80.57;99305.81;1648241;85;21081;-64
2022/01/28 06:16:14;;;;;;;17.02;13.15;;;;;;;1.97;80.74;99297.13;1653805;85;20979;-64
2022/01/28 06:18:42;;;;;;;15.80;11.27;;;;;;;2.08;80.43;99295.53;1712624;82;21049;-63
2022/01/28 06:21:09;;;;;;;17.23;12.70;;;;;;;2.17;80.29;99297.70;1704971;82;20987;-63
2022/01/28 06:23:38;;;;;;;16.57;13.47;;;;;;;2.18;80.13;99287.50;1699930;82;21459;-64
2022/01/28 06:26:05;;;;;;;16.73;13.97;;;;;;;2.14;80.11;99287.50;1714843;83;21058;-62
2022/01/28 06:28:31;;;;;;;;;;;;;;;2.09;80.21;99284.05;1711136;82;21081;-65
2022/01/28 06:30:58;;;;;;;16.37;13.20;;;;;;;2.05;80.38;99288.45;1710464;82;20167;-65
2022/01/28 06:33:24;;;;;;;18.25;13.48;;;;;;;2.02;80.45;99286.97;1710695;82;22300;-63
2022/01/28 06:35:51;;;;;;;19.37;13.53;;;;;;;2.09;80.56;99280.10;1706251;83;21070;-64
2022/01/28 06:38:17;;;;;;;17.20;12.70;;;;;;;2.09;80.56;99280.10;1717017;82;21035;-63
2022/01/28 06:40:44;;;;;;;18.82;14.87;;;;;;;2.13;80.50;99285.37;1718701;82;20994;-64
2022/01/28 06:43:12;;;;;;;17.85;13.80;;;;;;;2.11;80.50;99287.34;1714674;82;21069;-64
2022/01/28 06:45:42;;;;;;;17.07;13.53;;;;;;;2.07;80.74;99291.27;1711145;82;21095;-63
2022/01/28 06:48:13;;;;;;;18.07;13.83;;;;;;;2.05;80.83;99294.52;1710848;82;21090;-64
2022/01/28 06:50:42;;;;;;;16.83;13.17;;;;;;;2.07;80.74;99284.70;1712197;82;21605;-64
2022/01/28 06:53:10;;;;;;;19.53;14.20;;;;;;;2.12;80.74;99288.97;1704004;82;21474;-65
2022/01/28 06:55:37;;;;;;;16.03;12.93;;;;;;;2.15;80.66;99293.10;1696781;82;21284;-64
2022/01/28 07:00:22;;;;;;;16.90;13.10;;;;;;;2.13;80.83;99284.55;1764865;78;22064;-66
2022/01/28 07:02:50;;;;;;;17.27;13.88;;;;;;;2.04;80.89;99289.45;1674473;84;21022;-63
2022/01/28 07:05:16;;;;;;;17.13;14.13;;;;;;;2.05;81.03;99300.28;1677219;84;21599;-64
2022/01/28 07:07:44;;;;;;;18.33;14.57;;;;;;;2.15;81.01;99294.41;1665859;84;22234;-65
2022/01/28 07:10:10;;;;;;;21.05;14.63;;;;;;;2.24;80.85;99297.41;1674878;84;21596;-64
2022/01/28 07:12:37;;;;;;;17.65;14.43;;;;;;;2.30;80.75;99298.57;1659585;83;21025;-63
2022/01/28 07:15:03;;;;;;;;;;;;;;;2.28;80.56;99290.84;1674111;84;21001;-63
2022/01/28 07:17:30;;;;;;;16.20;13.28;;;;;;;2.28;80.60;99288.67;1657851;84;20169;-63
2022/01/28 07:19:57;;;;;;;18.27;14.83;;;;;;;2.24;80.66;99288.20;1655428;84;21093;-63
2022/01/28 07:22:23;;;;;;;16.93;13.85;;;;;;;2.26;80.34;99289.33;1676739;82;21009;-63
2022/01/28 07:24:49;;;;;;;22.05;15.40;;;;;;;2.32;80.10;99291.34;1675952;84;21063;-62
2022/01/28 07:27:19;;;;;;;18.90;13.55;;;;;;;2.40;80.02;99294.48;1680518;84;21007;-62
2022/01/28 07:29:44;;;;;;;19.47;14.13;;;;;;;2.47;79.80;99296.30;1690035;84;21492;-64
2022/01/28 07:32:10;;;;;;;16.93;14.23;;;;;;;2.51;79.49;99294.98;1674323;84;21059;-63
2022/01/28 07:34:37;;;;;;;18.67;14.67;;;;;;;2.46;79.39;99300.41;1688737;83;21140;-63
2022/01/28 07:37:04;;;;;;;18.45;15.20;;;;;;;2.43;79.58;99291.03;1699288;83;21347;-64
2022/01/28 07:39:30;;;;;;;17.57;14.93;;;;;;;2.43;79.63;99291.50;1698043;83;21074;-63
2022/01/28 07:41:58;;;;;;;18.23;14.63;;;;;;;2.45;79.76;99286.44;1697236;83;21065;-64
2022/01/28 07:44:26;;;;;;;17.32;13.43;;;;;;;2.50;79.34;99286.75;1697662;82;21001;-62
2022/01/28 07:46:52;;;;;;;18.90;13.90;;;;;;;2.61;78.97;99278.23;1697519;84;21021;-64
2022/01/28 07:49:18;;;;;;;17.65;13.80;;;;;;;2.68;78.75;99281.36;1695310;83;21001;-63
2022/01/28 07:51:44;;;;;;;20.23;16.10;;;;;;;2.73;78.62;99275.59;1685497;83;21536;-63
2022/01/28 07:54:10;;;;;;;18.35;15.55;;;;;;;2.72;78.29;99279.23;1697181;83;21053;-63
2022/01/28 07:56:37;;;;;;;21.30;15.03;;;;;;;2.68;78.23;99279.23;1694075;81;21096;-64
2022/01/28 07:59:04;;;;;;;17.53;13.57;;;;;;;2.66;78.11;99279.89;1690514;83;21593;-63
2022/01/28 08:01:31;;;;;;;17.98;14.30;;;;;;;2.64;77.98;99286.63;1696549;83;21512;-64
2022/01/28 08:03:57;;;;;;;19.75;13.85;;;;;;;2.73;77.73;99278.22;1695824;83;21495;-64
2022/01/28 08:06:25;;;;;;;18.05;13.83;;;;;;;2.72;77.46;99272.15;1696935;83;21073;-63
2022/01/28 08:08:52;;;;;;;19.93;13.87;;;;;;;2.69;77.59;99278.23;1704666;83;21039;-63
2022/01/28 08:11:18;;;;;;;21.23;16.07;;;;;;;2.66;77.85;99273.31;1669116;84;21509;-65
2022/01/28 08:13:46;;;;;;;19.07;14.90;;;;;;;2.66;77.74;99273.31;1669838;84;21136;-64
2022/01/28 08:16:12;;;;;;;19.62;15.35;;;;;;;2.71;77.49;99274.94;1676330;84;21559;-65
2022/01/28 08:18:40;;;;;;;;;;;;;;;2.78;77.15;99272.48;1690536;84;21489;-64
2022/01/28 08:21:06;;;;;;;20.32;14.80;;;;;;;2.83;76.92;99267.56;1683352;84;20381;-64
2022/01/28 08:23:32;;;;;;;19.98;14.47;;;;;;;2.74;76.99;99258.83;1676667;83;20976;-64
2022/01/28 08:25:59;;;;;;;17.50;13.90;;;;;;;2.72;77.08;99258.17;1687847;83;21108;-63
2022/01/28 08:28:24;;;;;;;21.73;14.50;;;;;;;2.72;77.08;99260.31;1693939;83;21036;-65
2022/01/28 08:30:51;;;;;;;19.45;13.45;;;;;;;2.73;76.90;99263.75;1691016;83;21067;-63
2022/01/28 08:33:17;;;;;;;12.78;10.68;;;;;;;2.76;76.56;99261.31;1687623;83;21039;-64
2022/01/28 08:35:51;;;;;;;17.37;12.78;;;;;;;2.83;76.09;99267.06;1652228;84;21047;-63
2022/01/28 08:38:17;;;;;;;13.47;10.77;;;;;;;2.89;76.11;99261.13;1665129;84;21024;-65
2022/01/28 08:40:44;;;;;;;17.73;12.73;;;;;;;2.92;76.01;99266.08;1658653;84;21559;-65
2022/01/28 08:43:10;;;;;;;17.10;13.77;;;;;;;2.93;76.02;99265.58;1665954;84;21092;-65
2022/01/28 08:45:36;;;;;;;15.23;12.43;;;;;;;2.92;75.95;99267.39;1655179;85;22017;-64
2022/01/28 08:48:04;;;;;;;18.50;13.00;;;;;;;2.96;75.91;99261.77;1663938;84;21629;-64
2022/01/28 08:50:32;;;;;;;15.67;11.90;;;;;;;2.97;75.58;99254.22;1667534;84;21704;-65
2022/01/28 08:52:58;;;;;;;18.95;11.68;;;;;;;2.99;75.28;99260.95;1661684;84;21531;-65
2022/01/28 08:55:25;;;;;;;15.90;12.60;;;;;;;3.01;75.04;99263.43;1666489;82;22572;-66
2022/01/28 08:57:52;;;;;;;;;;;;;;;3.01;75.16;99265.56;1671305;84;21031;-64
2022/01/28 09:00:21;;;;;;;19.77;11.80;;;;;;;2.95;75.16;99259.65;1652081;85;20132;-65
2022/01/28 09:02:48;;;;;;;18.27;13.87;;;;;;;2.81;75.49;99263.77;1621417;85;22441;-65
2022/01/28 09:05:14;;;;;;;21.27;13.63;;;;;;;2.79;75.62;99260.48;1649494;85;21085;-64
2022/01/28 09:07:41;;;;;;;15.57;12.47;;;;;;;2.81;75.67;99268.22;1618827;87;21085;-64
2022/01/28 09:10:18;;;;;;;15.72;12.75;;;;;;;2.86;75.68;99264.11;1660269;85;21114;-65
2022/01/28 09:13:10;;;;;;;18.33;12.80;;;;;;;2.92;75.54;99262.63;1611526;85;21185;-64
2022/01/28 09:15:17;;;;;;;19.27;13.88;;;;;;;2.93;75.58;99260.31;1673823;84;21502;-64
2022/01/28 09:17:44;;;;;;;15.28;12.88;;;;;;;2.90;75.71;99263.26;1677872;84;21080;-65
2022/01/28 09:20:10;;;;;;;15.35;12.23;;;;;;;2.83;76.04;99253.91;1680373;84;21045;-63
2022/01/28 09:22:36;;;;;;;19.27;13.50;;;;;;;2.74;76.43;99256.20;1673695;84;20991;-64
2022/01/28 09:25:06;;;;;;;15.70;12.73;;;;;;;2.72;76.63;99262.94;1658261;85;20971;-63
2022/01/28 09:27:32;;;;;;;16.67;12.80;;;;;;;2.79;76.73;99256.54;1655890;85;21093;-64
2022/01/28 09:29:58;;;;;;;19.87;13.75;;;;;;;2.81;76.78;99258.51;1655452;85;21166;-63
2022/01/28 09:32:24;;;;;;;17.80;14.20;;;;;;;2.44;76.73;99196.66;1654513;85;21058;-65
2022/01/28 09:34:50;;;;;;;19.42;15.30;;;;;;;2.79;76.68;99246.02;1671239;83;21003;-64
2022/01/28 09:37:16;;;;;;;18.27;14.47;;;;;;;2.79;76.72;99236.80;1671506;84;21669;-65
2022/01/28 09:39:44;;;;;;;17.73;14.33;;;;;;;2.84;76.85;99227.08;1607570;88;21618;-71
2022/01/28 09:42:15;;;;;;;18.90;12.93;;;;;;;2.95;76.51;99233.83;1676904;84;21657;-66
2022/01/28 09:44:43;;;;;;;16.07;12.83;;;;;;;3.06;75.92;99216.37;1669401;84;21055;-66
2022/01/28 09:47:11;;;;;;;16.20;13.27;;;;;;;3.14;75.91;99220.30;1676921;84;21566;-69
2022/01/28 09:49:40;;;;;;;14.27;12.77;;;;;;;3.18;75.61;99218.97;1676316;84;21114;-64
2022/01/28 09:52:11;;;;;;;15.73;12.60;;;;;;;3.21;75.29;99215.19;1645718;84;21066;-65
2022/01/28 09:54:39;;;;;;;13.37;11.97;;;;;;;3.23;74.71;99206.13;1650395;85;21133;-65
2022/01/28 09:57:09;;;;;;;16.00;12.23;;;;;;;3.24;74.36;99199.88;1699456;82;21023;-63
2022/01/28 09:59:38;;;;;;;13.30;11.90;;;;;;;3.34;74.18;99202.31;1692220;82;21097;-65
2022/01/28 10:02:05;;;;;;;15.00;12.50;;;;;;;3.44;73.78;99190.26;1669136;82;21110;-65
2022/01/28 10:04:32;;;;;;;14.97;12.63;;;;;;;3.50;73.84;99193.52;1657322;84;21034;-64
2022/01/28 10:06:58;;;;;;;17.52;13.30;;;;;;;3.52;73.94;99190.22;1666664;84;21733;-64
2022/01/28 10:09:24;;;;;;;;;;;;;;;3.60;73.53;99188.05;1667564;84;21274;-65
2022/01/28 10:11:55;;;;;;;16.00;13.00;;;;;;;3.62;72.99;99182.95;1657550;84;20225;-65
2022/01/28 10:14:23;;;;;;;14.97;12.43;;;;;;;3.60;73.19;99190.67;1664130;84;21499;-66
2022/01/28 10:17:00;;;;;;;15.30;12.30;;;;;;;3.66;73.04;99180.79;1650190;84;21107;-64
2022/01/28 10:19:39;;;;;;;15.60;13.03;;;;;;;3.78;72.57;99174.12;1653794;84;21353;-65
2022/01/28 10:22:17;;;;;;;16.80;14.00;;;;;;;3.80;72.24;99166.05;1650268;84;21030;-64
2022/01/28 10:24:44;;;;;;;14.60;12.80;;;;;;;3.72;72.23;99170.87;1656710;84;21588;-64
2022/01/28 10:27:11;;;;;;;14.73;12.88;;;;;;;3.63;72.38;99171.39;1659626;84;21070;-65
2022/01/28 10:29:43;;;;;;;14.78;12.28;;;;;;;3.60;72.60;99161.22;1668506;84;21070;-65
2022/01/28 10:32:15;;;;;;;16.97;12.00;;;;;;;3.59;72.65;99161.38;1659778;84;21141;-65
2022/01/28 10:34:49;;;;;;;16.70;11.07;;;;;;;3.62;72.65;99160.55;1642065;85;21012;-65
2022/01/28 10:37:19;;;;;;;15.03;12.00;;;;;;;3.72;72.39;99159.52;1672784;84;21675;-64
2022/01/28 10:40:02;;;;;;;17.23;13.33;;;;;;;3.72;72.30;99143.70;1663848;84;21090;-64
2022/01/28 10:42:48;;;;;;;18.40;14.07;;;;;;;3.60;72.62;99141.45;1676295;84;21606;-65
2022/01/28 10:45:17;;;;;;;16.27;13.87;;;;;;;3.51;72.92;99142.48;1662115;84;21014;-64
2022/01/28 10:47:53;;;;;;;16.40;12.43;;;;;;;3.48;73.32;99138.86;1648128;85;21074;-66
2022/01/28 10:50:36;;;;;;;17.77;13.27;;;;;;;3.50;73.49;99136.41;1661151;85;21561;-65
2022/01/28 10:53:19;;;;;;;13.43;10.93;;;;;;;3.60;73.37;99131.39;1641338;85;21057;-64
2022/01/28 10:55:54;;;;;;;13.43;11.17;;;;;;;3.71;72.96;99123.09;1642494;85;21095;-65
2022/01/28 10:58:25;;;;;;;17.35;13.93;;;;;;;3.67;72.74;99122.64;1640310;86;21050;-65
2022/01/28 11:00:57;;;;;;;15.77;12.90;;;;;;;3.63;73.12;99117.37;1643268;84;21539;-71
2022/01/28 11:03:27;;;;;;;14.17;12.77;;;;;;;3.61;73.16;99110.65;1638451;86;21008;-72
2022/01/28 11:05:59;;;;;;;18.40;12.77;;;;;;;3.60;73.03;99110.31;1636778;86;21103;-74
2022/01/28 11:08:29;;;;;;;13.23;11.80;;;;;;;3.64;73.15;99124.30;1635211;86;21072;-74
2022/01/28 11:10:56;;;;;;;16.73;12.43;;;;;;;3.81;73.61;99112.34;1638636;86;21046;-74
2022/01/28 11:13:24;;;;;;;15.17;13.00;;;;;;;3.95;72.48;99109.45;1651588;85;21002;-74
2022/01/28 11:15:50;;;;;;;14.50;12.53;;;;;;;4.03;72.30;99107.58;1653518;85;21039;-74
2022/01/28 11:18:18;;;;;;;18.73;13.22;;;;;;;4.13;71.82;99103.89;1650632;85;21538;-72
2022/01/28 11:20:52;;;;;;;15.77;13.13;;;;;;;4.13;71.56;99096.79;1652735;85;21033;-73
2022/01/28 11:23:30;;;;;;;14.17;11.93;;;;;;;4.13;71.49;99090.70;1641081;84;21117;-75
2022/01/28 11:26:40;;;;;;;16.03;12.03;;;;;;;4.15;71.05;99074.20;1610591;87;21026;-73
2022/01/28 11:29:25;;;;;;;16.30;12.30;;;;;;;4.24;70.44;99072.63;1602553;88;21146;-72
2022/01/28 11:31:55;;;;;;;16.93;14.20;;;;;;;4.22;70.68;99081.70;1618535;88;21112;-74
2022/01/28 11:34:31;;;;;;;15.43;12.87;;;;;;;4.18;70.96;99081.27;1625764;86;21033;-74
2022/01/28 11:37:05;;;;;;;18.17;14.37;;;;;;;4.22;70.79;99079.06;1581023;89;21519;-72
2022/01/28 11:39:39;;;;;;;15.73;14.10;;;;;;;4.22;70.42;99079.91;1640634;85;21057;-72
2022/01/28 11:42:18;;;;;;;15.53;12.83;;;;;;;4.21;70.54;99080.08;1648463;86;21061;-74
2022/01/28 11:44:54;;;;;;;14.10;12.33;;;;;;;4.21;70.29;99081.39;1584414;88;21029;-74
2022/01/28 11:47:30;;;;;;;14.60;12.00;;;;;;;4.27;70.05;99076.72;1582090;88;21022;-73
2022/01/28 11:50:07;;;;;;;13.47;11.93;;;;;;;4.31;70.04;99071.40;1652775;85;21038;-78
2022/01/28 11:52:51;;;;;;;12.90;11.40;;;;;;;4.25;69.95;99077.40;1639596;85;21058;-74
2022/01/28 11:55:26;;;;;;;14.53;11.70;;;;;;;4.20;70.04;99078.42;1640107;83;21050;-74
2022/01/28 11:58:13;;;;;;;14.33;12.67;;;;;;;4.13;70.08;99077.02;1630021;86;21037;-76
2022/01/28 12:00:54;;;;;;;13.20;11.80;;;;;;;4.09;70.25;99073.91;1640162;85;21006;-72
2022/01/28 12:03:24;;;;;;;14.10;12.43;;;;;;;4.07;70.54;99064.55;1636465;85;21021;-73
2022/01/28 12:05:56;;;;;;;13.57;11.67;;;;;;;4.06;70.19;99064.20;1641885;85;21103;-73
2022/01/28 12:08:29;;;;;;;12.07;10.80;;;;;;;4.11;69.88;99064.51;1643678;85;21117;-73
2022/01/28 12:11:01;;;;;;;10.50;9.60;;;;;;;4.21;69.47;99062.94;1635135;85;21147;-74
2022/01/28 12:13:33;;;;;;;11.43;9.70;;;;;;;4.21;69.20;99061.11;1658880;85;21099;-75
2022/01/28 12:16:10;;;;;;;13.07;9.77;;;;;;;4.16;68.72;99069.23;1631185;85;21058;-71
2022/01/28 12:18:49;;;;;;;10.33;9.37;;;;;;;4.14;68.82;99063.31;1635725;85;21102;-72
2022/01/28 12:21:25;;;;;;;9.43;8.57;;;;;;;4.11;68.74;99067.14;1643631;85;21119;-72
2022/01/28 12:23:55;;;;;;;9.13;8.23;;;;;;;4.14;68.66;99056.22;1651201;82;21032;-74
2022/01/28 12:26:22;;;;;;;9.93;9.00;;;;;;;4.17;68.08;99065.61;1644104;85;21084;-73
2022/01/28 12:28:50;;;;;;;;;;;;;;;4.18;67.90;99066.76;1646959;85;21025;-73
2022/01/28 12:31:24;;;;;;;9.53;8.53;;;;;;;4.17;67.85;99061.66;1648886;85;20397;-72
2022/01/28 12:33:57;;;;;;;8.90;8.00;;;;;;;4.09;67.96;99051.49;1644463;85;21075;-71
2022/01/28 12:36:29;;;;;;;9.40;8.47;;;;;;;4.18;67.85;99060.16;1644126;85;21115;-72
2022/01/28 12:41:55;;;;;;;9.93;8.93;;;;;;;4.26;67.54;99055.31;1646465;85;21051;-73
2022/01/28 12:44:22;;;;;;;9.70;8.80;;;;;;;4.17;67.58;99056.38;1639007;85;21078;-72
2022/01/28 12:46:56;;;;;;;10.97;9.17;;;;;;;4.08;67.57;99055.63;1605492;87;21020;-74
2022/01/28 12:49:28;;;;;;;8.97;8.00;;;;;;;4.01;67.80;99052.05;1613473;87;21073;-72
2022/01/28 12:52:07;;;;;;;9.17;8.27;;;;;;;3.96;67.83;99045.19;1586448;89;21083;-72
2022/01/28 12:54:44;;;;;;;11.30;9.57;;;;;;;3.87;67.79;99053.65;1563451;89;21163;-74
2022/01/28 12:57:15;;;;;;;9.43;8.45;;;;;;;3.80;68.14;99044.30;1647842;84;21061;-71
2022/01/28 12:59:48;;;;;;;13.17;9.50;;;;;;;3.80;68.16;99045.61;1615665;87;21056;-74
2022/01/28 13:02:14;;;;;;;10.97;8.37;;;;;;;3.87;68.17;99040.47;1604053;87;21524;-72
2022/01/28 13:10:02;;;;;;;11.27;8.63;;;;;;;4.00;67.67;99031.46;1648081;85;21538;-73
2022/01/28 13:12:31;;;;;;;9.07;7.63;;;;;;;3.99;67.18;99025.04;1644547;85;21040;-72
2022/01/28 13:15:10;;;;;;;9.47;8.57;;;;;;;3.93;66.59;99022.62;1652944;86;21054;-72